Time;durP1;ratioP1;P1;durP2;ratioP2;P2;SDS_P1;SDS_P2;PMS_P1;PMS_P2;Temp;Humidity;BMP_temperature;BMP_pressure;BME280_temperature;BME280_humidity;BME280_pressure;Samples;Min_cycle;Max_cycle;Signal;HPM_P1;HPM_P2
2023/05/13 00:01:13;;;;;;;;;;;;;;;;;;5068974;28;19921;-62
2023/05/13 00:03:39;;;;;;;;;;;;;;;;;;5051529;28;19928;-61
2023/05/13 00:06:05;;;;;;;;;;;;;;;;;;5058472;28;19963;-61
2023/05/13 00:08:31;;;;;;;;;;;;;;;;;;5052836;28;19932;-61
2023/05/13 00:10:57;;;;;;;;;;;;;;;;;;5070977;28;20050;-61
2023/05/13 00:13:23;;;;;;;;;;;;;;;;;;5075952;28;20362;-61
2023/05/13 00:15:49;;;;;;;;;;;;;;;;;;5076827;28;19931;-61
2023/05/13 00:18:15;;;;;;;;;;;;;;;;;;5070310;28;19925;-61
2023/05/13 00:20:40;;;;;;;;;;;;;;;;;;5058079;28;19924;-61
2023/05/13 00:23:06;;;;;;;;;;;;;;;;;;5069567;28;19921;-61
2023/05/13 00:25:32;;;;;;;;;;;;;;;;;;5070684;28;20583;-61
2023/05/13 00:27:58;;;;;;;;;;;;;;;;;;5044955;28;19929;-61
2023/05/13 00:30:24;;;;;;;;;;;;;;;;;;5067161;28;19929;-61
2023/05/13 00:32:50;;;;;;;;;;;;;;;;;;5070153;28;19927;-61
2023/05/13 00:35:16;;;;;;;;;;;;;;;;;;5069889;28;19978;-62
2023/05/13 00:37:42;;;;;;;;;;;;;;;;;;5053865;28;20358;-61
2023/05/13 00:40:08;;;;;;;;;;;;;;;;;;5045190;28;20011;-61
2023/05/13 00:42:34;;;;;;;;;;;;;;;;;;5065588;28;19985;-61
2023/05/13 00:45:00;;;;;;;;;;;;;;;;;;5041754;28;20046;-61
2023/05/13 00:47:26;;;;;;;;;;;;;;;;;;5065521;28;19967;-61
2023/05/13 00:49:51;;;;;;;;;;;;;;;;;;5063928;28;19920;-61
2023/05/13 00:52:17;;;;;;;;;;;;;;;;;;5052101;28;20025;-61
2023/05/13 00:54:43;;;;;;;;;;;;;;;;;;5071243;28;19924;-61
2023/05/13 00:57:09;;;;;;;;;;;;;;;;;;5068918;28;19929;-61
2023/05/13 00:59:35;;;;;;;;;;;;;;;;;;5051246;28;19974;-61
2023/05/13 01:02:01;;;;;;;;;;;;;;;;;;5060064;28;19999;-61
2023/05/13 01:04:27;;;;;;;;;;;;;;;;;;5070317;28;20640;-61
2023/05/13 01:06:53;;;;;;;;;;;;;;;;;;5071964;28;19928;-62
2023/05/13 01:09:19;;;;;;;;;;;;;;;;;;5051601;28;19926;-61
2023/05/13 01:11:45;;;;;;;;;;;;;;;;;;5070051;28;19924;-61
2023/05/13 01:14:11;;;;;;;;;;;;;;;;;;5071019;28;19959;-61
2023/05/13 01:16:36;;;;;;;;;;;;;;;;;;5070814;28;19961;-60
2023/05/13 01:19:02;;;;;;;;;;;;;;;;;;5064532;28;19921;-60
2023/05/13 01:21:28;;;;;;;;;;;;;;;;;;5064345;28;20413;-61
2023/05/13 01:23:54;;;;;;;;;;;;;;;;;;5051748;28;19928;-61
2023/05/13 01:26:21;;;;;;;;;;;;;;;;;;5052175;28;19929;-61
2023/05/13 01:28:47;;;;;;;;;;;;;;;;;;5063981;28;19959;-61
2023/05/13 01:31:13;;;;;;;;;;;;;;;;;;5062160;28;19960;-61
2023/05/13 01:33:38;;;;;;;;;;;;;;;;;;5069615;28;20310;-60
2023/05/13 01:36:04;;;;;;;;;;;;;;;;;;5067348;28;20015;-61
2023/05/13 01:38:30;;;;;;;;;;;;;;;;;;5069587;28;19920;-61
2023/05/13 01:40:56;;;;;;;;;;;;;;;;;;5052200;28;20718;-61
2023/05/13 01:43:22;;;;;;;;;;;;;;;;;;5051611;28;19932;-61
2023/05/13 01:45:48;;;;;;;;;;;;;;;;;;5068524;28;19920;-61
2023/05/13 01:48:14;;;;;;;;;;;;;;;;;;5070052;28;19971;-61
2023/05/13 01:50:40;;;;;;;;;;;;;;;;;;5055446;28;19925;-61
2023/05/13 01:53:06;;;;;;;;;;;;;;;;;;5064459;28;19924;-61
2023/05/13 01:55:31;;;;;;;;;;;;;;;;;;5035565;28;20407;-60
2023/05/13 01:57:57;;;;;;;;;;;;;;;;;;5055195;28;19981;-60
2023/05/13 02:00:23;;;;;;;;;;;;;;;;;;5053953;28;19929;-60
2023/05/13 02:02:49;;;;;;;;;;;;;;;;;;5053728;28;19924;-61
2023/05/13 02:05:15;;;;;;;;;;;;;;;;;;5067890;28;19927;-61
2023/05/13 02:07:41;;;;;;;;;;;;;;;;;;5071066;28;19929;-60
2023/05/13 02:10:07;;;;;;;;;;;;;;;;;;5068536;28;20372;-60
2023/05/13 02:12:33;;;;;;;;;;;;;;;;;;5073623;28;19924;-60
2023/05/13 02:14:59;;;;;;;;;;;;;;;;;;5072532;28;20385;-60
2023/05/13 02:17:25;;;;;;;;;;;;;;;;;;5049231;28;19924;-61
2023/05/13 02:19:50;;;;;;;;;;;;;;;;;;5073628;28;19925;-60
2023/05/13 02:22:16;;;;;;;;;;;;;;;;;;5073174;28;19967;-60
2023/05/13 02:24:42;;;;;;;;;;;;;;;;;;5055090;28;20273;-60
2023/05/13 02:27:11;;;;;;;;;;;;;;;;;;5074247;28;19924;-60
2023/05/13 02:29:37;;;;;;;;;;;;;;;;;;5055465;28;20496;-61
2023/05/13 02:32:03;;;;;;;;;;;;;;;;;;5051311;28;19924;-61
2023/05/13 02:34:29;;;;;;;;;;;;;;;;;;5053351;28;19935;-62
2023/05/13 02:36:55;;;;;;;;;;;;;;;;;;5073601;28;19924;-61
2023/05/13 02:39:21;;;;;;;;;;;;;;;;;;5037865;28;19974;-61
2023/05/13 02:41:47;;;;;;;;;;;;;;;;;;5053459;28;19924;-61
2023/05/13 02:44:13;;;;;;;;;;;;;;;;;;5071474;28;19924;-61
2023/05/13 02:46:39;;;;;;;;;;;;;;;;;;5066515;28;19944;-61
2023/05/13 02:49:04;;;;;;;;;;;;;;;;;;5042564;28;20282;-61
2023/05/13 02:51:30;;;;;;;;;;;;;;;;;;5066126;28;19967;-61
2023/05/13 02:53:56;;;;;;;;;;;;;;;;;;5071492;28;19927;-61
2023/05/13 02:56:22;;;;;;;;;;;;;;;;;;5052153;28;19936;-61
2023/05/13 02:58:48;;;;;;;;;;;;;;;;;;5070967;28;19974;-61
2023/05/13 03:01:14;;;;;;;;;;;;;;;;;;5052926;28;19977;-61
2023/05/13 03:03:40;;;;;;;;;;;;;;;;;;5052946;28;20358;-61
2023/05/13 03:06:06;;;;;;;;;;;;;;;;;;5065557;28;19927;-61
2023/05/13 03:08:32;;;;;;;;;;;;;;;;;;5068069;28;19931;-61
2023/05/13 03:10:57;;;;;;;;;;;;;;;;;;5071565;28;19924;-61
2023/05/13 03:13:23;;;;;;;;;;;;;;;;;;5070955;28;20388;-61
2023/05/13 03:15:49;;;;;;;;;;;;;;;;;;5068241;28;20563;-61
2023/05/13 03:18:15;;;;;;;;;;;;;;;;;;5034788;28;19927;-61
2023/05/13 03:20:41;;;;;;;;;;;;;;;;;;5053877;28;19947;-61
2023/05/13 03:23:07;;;;;;;;;;;;;;;;;;5058594;28;19921;-61
2023/05/13 03:25:33;;;;;;;;;;;;;;;;;;5070471;28;19935;-61
2023/05/13 03:27:59;;;;;;;;;;;;;;;;;;5064362;28;19924;-61
2023/05/13 03:30:25;;;;;;;;;;;;;;;;;;5047069;28;19929;-61
2023/05/13 03:32:51;;;;;;;;;;;;;;;;;;5071937;28;19920;-60
2023/05/13 03:35:17;;;;;;;;;;;;;;;;;;5072961;28;20297;-61
2023/05/13 03:37:42;;;;;;;;;;;;;;;;;;5073829;28;19921;-61
2023/05/13 03:40:08;;;;;;;;;;;;;;;;;;5071193;28;19924;-61
2023/05/13 03:42:34;;;;;;;;;;;;;;;;;;5070327;28;19932;-61
2023/05/13 03:45:00;;;;;;;;;;;;;;;;;;5069699;28;20372;-61
2023/05/13 03:47:26;;;;;;;;;;;;;;;;;;5069667;28;19924;-60
2023/05/13 03:49:52;;;;;;;;;;;;;;;;;;5070623;28;19931;-60
2023/05/13 03:52:18;;;;;;;;;;;;;;;;;;5074091;28;19934;-60
2023/05/13 03:54:44;;;;;;;;;;;;;;;;;;5067310;28;19985;-61
2023/05/13 03:57:10;;;;;;;;;;;;;;;;;;5070190;28;19974;-61
2023/05/13 03:59:36;;;;;;;;;;;;;;;;;;5070695;28;19931;-61
2023/05/13 04:02:02;;;;;;;;;;;;;;;;;;5070914;28;19925;-60
2023/05/13 04:04:27;;;;;;;;;;;;;;;;;;5068831;28;19935;-61
2023/05/13 04:06:53;;;;;;;;;;;;;;;;;;5052954;28;19974;-61
2023/05/13 04:09:19;;;;;;;;;;;;;;;;;;5055204;28;20275;-61
2023/05/13 04:11:45;;;;;;;;;;;;;;;;;;5066358;28;20354;-61
2023/05/13 04:14:11;;;;;;;;;;;;;;;;;;5052611;28;19951;-61
2023/05/13 04:16:37;;;;;;;;;;;;;;;;;;5070710;28;19920;-61
2023/05/13 04:19:03;;;;;;;;;;;;;;;;;;5075060;28;20301;-61
2023/05/13 04:21:30;;;;;;;;;;;;;;;;;;5051774;28;19920;-61
2023/05/13 04:23:56;;;;;;;;;;;;;;;;;;5053434;28;19921;-61
2023/05/13 04:26:22;;;;;;;;;;;;;;;;;;5067832;28;19931;-61
2023/05/13 04:28:47;;;;;;;;;;;;;;;;;;5062331;28;19921;-61
2023/05/13 04:31:13;;;;;;;;;;;;;;;;;;5071421;28;19920;-61
2023/05/13 04:33:39;;;;;;;;;;;;;;;;;;5065874;28;19924;-61
2023/05/13 04:36:05;;;;;;;;;;;;;;;;;;5070076;28;19929;-61
2023/05/13 04:38:31;;;;;;;;;;;;;;;;;;5069893;28;19965;-61
2023/05/13 04:40:57;;;;;;;;;;;;;;;;;;5067015;28;20429;-61
2023/05/13 04:43:23;;;;;;;;;;;;;;;;;;5036658;28;19931;-61
2023/05/13 04:45:49;;;;;;;;;;;;;;;;;;5069926;28;19924;-61
2023/05/13 04:48:15;;;;;;;;;;;;;;;;;;5053127;28;19951;-61
2023/05/13 04:50:41;;;;;;;;;;;;;;;;;;5070151;28;20285;-60
2023/05/13 04:53:07;;;;;;;;;;;;;;;;;;5071840;28;20011;-61
2023/05/13 04:55:33;;;;;;;;;;;;;;;;;;5069827;28;20011;-61
2023/05/13 04:57:59;;;;;;;;;;;;;;;;;;5032817;28;19920;-61
2023/05/13 05:00:25;;;;;;;;;;;;;;;;;;5084483;28;19927;-61
2023/05/13 05:02:51;;;;;;;;;;;;;;;;;;5042940;28;19924;-61
2023/05/13 05:05:17;;;;;;;;;;;;;;;;;;5072191;28;19920;-60
2023/05/13 05:07:43;;;;;;;;;;;;;;;;;;5049236;28;19972;-60
2023/05/13 05:10:09;;;;;;;;;;;;;;;;;;5071666;28;19921;-61
2023/05/13 05:12:36;;;;;;;;;;;;;;;;;;5062869;28;19929;-61
2023/05/13 05:15:02;;;;;;;;;;;;;;;;;;5066062;28;19970;-61
2023/05/13 05:17:31;;;;;;;;;;;;;;;;;;5069123;28;20338;-62
2023/05/13 05:19:57;;;;;;;;;;;;;;;;;;5032984;28;19928;-62
2023/05/13 05:22:23;;;;;;;;;;;;;;;;;;5070789;28;19924;-61
2023/05/13 05:24:49;;;;;;;;;;;;;;;;;;5067396;28;19928;-61
2023/05/13 05:27:15;;;;;;;;;;;;;;;;;;5052438;28;19933;-61
2023/05/13 05:29:41;;;;;;;;;;;;;;;;;;5049633;28;19928;-61
2023/05/13 05:32:07;;;;;;;;;;;;;;;;;;5068914;28;19921;-61
2023/05/13 05:34:32;;;;;;;;;;;;;;;;;;5070012;28;19920;-61
2023/05/13 05:36:58;;;;;;;;;;;;;;;;;;5064896;28;19974;-61
2023/05/13 05:39:24;;;;;;;;;;;;;;;;;;5056486;28;20541;-61
2023/05/13 05:41:50;;;;;;;;;;;;;;;;;;5078558;28;19924;-62
2023/05/13 05:44:16;;;;;;;;;;;;;;;;;;5054611;28;19966;-62
2023/05/13 05:46:42;;;;;;;;;;;;;;;;;;5071878;28;19932;-61
2023/05/13 05:49:08;;;;;;;;;;;;;;;;;;5073759;28;19943;-62
2023/05/13 05:51:34;;;;;;;;;;;;;;;;;;5073313;28;19928;-62
2023/05/13 05:54:00;;;;;;;;;;;;;;;;;;5073973;28;19924;-62
2023/05/13 05:56:25;;;;;;;;;;;;;;;;;;5054166;28;20369;-62
2023/05/13 05:58:51;;;;;;;;;;;;;;;;;;5077143;28;19920;-60
2023/05/13 06:01:17;;;;;;;;;;;;;;;;;;5062895;28;19927;-60
2023/05/13 06:03:44;;;;;;;;;;;;;;;;;;5055318;28;19924;-60
2023/05/13 06:06:10;;;;;;;;;;;;;;;;;;5053304;28;19934;-61
2023/05/13 06:08:36;;;;;;;;;;;;;;;;;;5068610;28;19999;-62
2023/05/13 06:11:02;;;;;;;;;;;;;;;;;;5073992;28;19973;-61
2023/05/13 06:13:28;;;;;;;;;;;;;;;;;;5074709;28;19924;-60
2023/05/13 06:15:54;;;;;;;;;;;;;;;;;;5074692;28;19935;-61
2023/05/13 06:18:20;;;;;;;;;;;;;;;;;;5056277;28;20007;-62
2023/05/13 06:20:46;;;;;;;;;;;;;;;;;;5074222;28;19934;-61
2023/05/13 06:23:13;;;;;;;;;;;;;;;;;;5056421;28;19944;-61
2023/05/13 06:25:39;;;;;;;;;;;;;;;;;;5055949;28;19931;-62
2023/05/13 06:28:07;;;;;;;;;;;;;;;;;;5074019;28;19928;-61
2023/05/13 06:30:33;;;;;;;;;;;;;;;;;;5056274;28;20317;-60
2023/05/13 06:32:58;;;;;;;;;;;;;;;;;;5056048;28;19925;-61
2023/05/13 06:35:24;;;;;;;;;;;;;;;;;;5074303;28;19976;-61
2023/05/13 06:37:50;;;;;;;;;;;;;;;;;;5073776;28;19926;-60
2023/05/13 06:40:16;;;;;;;;;;;;;;;;;;5074520;28;19928;-61
2023/05/13 06:42:42;;;;;;;;;;;;;;;;;;5073710;28;20007;-60
2023/05/13 06:45:08;;;;;;;;;;;;;;;;;;5073752;28;19921;-60
2023/05/13 06:47:34;;;;;;;;;;;;;;;;;;5052213;28;19925;-61
2023/05/13 06:50:00;;;;;;;;;;;;;;;;;;5049433;28;20364;-61
2023/05/13 06:52:26;;;;;;;;;;;;;;;;;;5062637;28;20015;-61
2023/05/13 06:54:52;;;;;;;;;;;;;;;;;;5073806;28;20015;-60
2023/05/13 06:57:18;;;;;;;;;;;;;;;;;;5073879;28;19966;-61
2023/05/13 06:59:44;;;;;;;;;;;;;;;;;;5073392;28;19947;-60
2023/05/13 07:02:10;;;;;;;;;;;;;;;;;;5038412;28;19920;-61
2023/05/13 07:04:36;;;;;;;;;;;;;;;;;;5054839;28;19927;-60
2023/05/13 07:07:01;;;;;;;;;;;;;;;;;;5053720;28;19925;-60
2023/05/13 07:09:27;;;;;;;;;;;;;;;;;;5071006;28;19924;-61
2023/05/13 07:11:53;;;;;;;;;;;;;;;;;;5073042;28;19964;-61
2023/05/13 07:14:20;;;;;;;;;;;;;;;;;;5057545;28;20334;-61
2023/05/13 07:16:46;;;;;;;;;;;;;;;;;;5076730;28;20434;-60
2023/05/13 07:19:12;;;;;;;;;;;;;;;;;;5087612;28;19925;-61
2023/05/13 07:21:37;;;;;;;;;;;;;;;;;;5067820;28;19921;-61
2023/05/13 07:24:04;;;;;;;;;;;;;;;;;;5071796;28;20265;-61
2023/05/13 07:26:30;;;;;;;;;;;;;;;;;;5073634;28;19924;-61
2023/05/13 07:28:56;;;;;;;;;;;;;;;;;;5075164;28;19928;-61
2023/05/13 07:31:22;;;;;;;;;;;;;;;;;;5072642;28;19927;-61
2023/05/13 07:33:47;;;;;;;;;;;;;;;;;;5070745;28;20007;-62
2023/05/13 07:36:13;;;;;;;;;;;;;;;;;;5074864;28;20392;-62
2023/05/13 07:38:39;;;;;;;;;;;;;;;;;;5071316;28;20030;-61
2023/05/13 07:41:05;;;;;;;;;;;;;;;;;;5072528;28;19921;-62
2023/05/13 07:43:33;;;;;;;;;;;;;;;;;;5071179;28;20380;-61
2023/05/13 07:45:59;;;;;;;;;;;;;;;;;;5071540;28;20714;-61
2023/05/13 07:48:27;;;;;;;;;;;;;;;;;;5074395;28;19928;-61
2023/05/13 07:50:52;;;;;;;;;;;;;;;;;;5070938;28;19926;-61
2023/05/13 07:53:19;;;;;;;;;;;;;;;;;;5072440;28;20014;-61
2023/05/13 07:55:44;;;;;;;;;;;;;;;;;;5074068;28;20251;-61
2023/05/13 07:58:10;;;;;;;;;;;;;;;;;;5073896;28;19928;-61
2023/05/13 08:00:36;;;;;;;;;;;;;;;;;;5072835;28;19928;-61
2023/05/13 08:03:02;;;;;;;;;;;;;;;;;;5072355;28;19931;-62
2023/05/13 08:05:28;;;;;;;;;;;;;;;;;;5072676;28;20003;-61
2023/05/13 08:07:54;;;;;;;;;;;;;;;;;;5079393;28;19928;-61
2023/05/13 08:10:20;;;;;;;;;;;;;;;;;;5070450;28;19939;-60
2023/05/13 08:12:51;;;;;;;;;;;;;;;;;;5072441;28;19924;-60
2023/05/13 08:15:16;;;;;;;;;;;;;;;;;;5072247;28;20007;-60
2023/05/13 08:17:42;;;;;;;;;;;;;;;;;;5072353;28;20326;-60
2023/05/13 08:20:10;;;;;;;;;;;;;;;;;;5072271;28;19926;-60
2023/05/13 08:22:36;;;;;;;;;;;;;;;;;;5072521;28;19932;-60
2023/05/13 08:25:02;;;;;;;;;;;;;;;;;;5072165;28;19920;-60
2023/05/13 08:27:28;;;;;;;;;;;;;;;;;;5072103;28;20274;-59
2023/05/13 08:29:54;;;;;;;;;;;;;;;;;;5072181;28;19931;-59
2023/05/13 08:32:20;;;;;;;;;;;;;;;;;;5071760;28;19924;-60
2023/05/13 08:34:46;;;;;;;;;;;;;;;;;;5071809;28;19948;-60
2023/05/13 08:37:12;;;;;;;;;;;;;;;;;;5071947;28;19924;-60
2023/05/13 08:39:38;;;;;;;;;;;;;;;;;;5071996;28;19931;-60
2023/05/13 08:42:03;;;;;;;;;;;;;;;;;;5071768;28;19979;-60
2023/05/13 08:44:29;;;;;;;;;;;;;;;;;;5051663;28;20057;-60
2023/05/13 08:46:55;;;;;;;;;;;;;;;;;;5017484;28;19932;-60
2023/05/13 08:49:21;;;;;;;;;;;;;;;;;;5077045;22;19924;-61
2023/05/13 08:51:47;;;;;;;;;;;;;;;;;;5071476;28;20008;-61
2023/05/13 08:54:15;;;;;;;;;;;;;;;;;;5069993;28;19920;-61
2023/05/13 08:56:41;;;;;;;;;;;;;;;;;;5071838;28;20422;-61
2023/05/13 08:59:07;;;;;;;;;;;;;;;;;;5071195;28;19930;-61
2023/05/13 09:01:33;;;;;;;;;;;;;;;;;;5070707;28;19924;-61
2023/05/13 09:03:58;;;;;;;;;;;;;;;;;;5072305;28;19924;-61
2023/05/13 09:06:24;;;;;;;;;;;;;;;;;;5071105;28;20404;-61
2023/05/13 09:08:50;;;;;;;;;;;;;;;;;;5071514;28;19921;-62
2023/05/13 09:11:18;;;;;;;;;;;;;;;;;;5068942;28;20137;-61
2023/05/13 09:13:44;;;;;;;;;;;;;;;;;;5071593;28;20347;-61
2023/05/13 09:16:11;;;;;;;;;;;;;;;;;;5070083;28;19930;-61
2023/05/13 09:18:37;;;;;;;;;;;;;;;;;;5059456;28;19959;-61
2023/05/13 09:21:03;;;;;;;;;;;;;;;;;;5051505;28;20340;-61
2023/05/13 09:23:29;;;;;;;;;;;;;;;;;;5070885;28;19930;-61
2023/05/13 09:25:55;;;;;;;;;;;;;;;;;;5088501;28;19920;-61
2023/05/13 09:28:22;;;;;;;;;;;;;;;;;;5079676;28;19928;-61
2023/05/13 09:30:50;;;;;;;;;;;;;;;;;;5070350;28;20258;-61
2023/05/13 09:33:18;;;;;;;;;;;;;;;;;;5071271;28;19924;-61
2023/05/13 09:35:44;;;;;;;;;;;;;;;;;;5071111;28;19920;-61
2023/05/13 09:38:10;;;;;;;;;;;;;;;;;;5077752;28;19927;-61
2023/05/13 09:40:36;;;;;;;;;;;;;;;;;;5073138;28;19975;-61
2023/05/13 09:43:02;;;;;;;;;;;;;;;;;;5081705;28;19970;-61
2023/05/13 09:45:28;;;;;;;;;;;;;;;;;;5078867;28;19948;-61
2023/05/13 09:47:54;;;;;;;;;;;;;;;;;;5091089;28;19989;-61
2023/05/13 09:50:20;;;;;;;;;;;;;;;;;;5075798;28;19929;-61
2023/05/13 09:52:46;;;;;;;;;;;;;;;;;;5071180;28;20389;-61
2023/05/13 09:55:12;;;;;;;;;;;;;;;;;;5080538;28;19959;-61
2023/05/13 09:57:39;;;;;;;;;;;;;;;;;;5069189;28;19992;-61
2023/05/13 10:00:05;;;;;;;;;;;;;;;;;;5088165;28;20554;-61
2023/05/13 10:02:31;;;;;;;;;;;;;;;;;;5080756;28;19920;-61
2023/05/13 10:04:57;;;;;;;;;;;;;;;;;;5078977;28;19924;-61
2023/05/13 10:07:24;;;;;;;;;;;;;;;;;;5078335;28;19924;-61
2023/05/13 10:09:50;;;;;;;;;;;;;;;;;;5079495;28;19932;-62
2023/05/13 10:12:16;;;;;;;;;;;;;;;;;;5068914;28;20284;-61
2023/05/13 10:14:42;;;;;;;;;;;;;;;;;;5070319;28;19924;-61
2023/05/13 10:17:08;;;;;;;;;;;;;;;;;;5087793;28;19927;-61
2023/05/13 10:19:34;;;;;;;;;;;;;;;;;;5064424;28;19974;-61
2023/05/13 10:22:00;;;;;;;;;;;;;;;;;;5074206;28;19963;-61
2023/05/13 10:24:27;;;;;;;;;;;;;;;;;;5071934;28;20025;-61
2023/05/13 10:26:53;;;;;;;;;;;;;;;;;;5077835;28;20413;-61
2023/05/13 10:29:19;;;;;;;;;;;;;;;;;;5092176;28;19931;-61
2023/05/13 10:31:45;;;;;;;;;;;;;;;;;;5084700;28;20672;-61
2023/05/13 10:34:11;;;;;;;;;;;;;;;;;;5094776;28;20065;-61
2023/05/13 10:36:37;;;;;;;;;;;;;;;;;;5089669;28;19920;-61
2023/05/13 10:39:03;;;;;;;;;;;;;;;;;;5094568;28;20392;-61
2023/05/13 10:41:29;;;;;;;;;;;;;;;;;;5085545;28;19978;-61
2023/05/13 10:43:55;;;;;;;;;;;;;;;;;;5093136;28;20495;-61
2023/05/13 10:46:21;;;;;;;;;;;;;;;;;;5089848;28;19970;-61
2023/05/13 10:48:47;;;;;;;;;;;;;;;;;;5074097;28;20022;-61
2023/05/13 10:51:13;;;;;;;;;;;;;;;;;;5071409;28;19928;-60
2023/05/13 10:53:39;;;;;;;;;;;;;;;;;;5061498;28;19924;-61
2023/05/13 10:56:06;;;;;;;;;;;;;;;;;;5087205;28;19920;-61
2023/05/13 10:58:32;;;;;;;;;;;;;;;;;;5067527;28;20490;-61
2023/05/13 11:00:58;;;;;;;;;;;;;;;;;;5048623;28;19920;-61
2023/05/13 11:03:24;;;;;;;;;;;;;;;;;;5055445;28;19921;-61
2023/05/13 11:05:50;;;;;;;;;;;;;;;;;;5073409;28;20568;-61
2023/05/13 11:08:16;;;;;;;;;;;;;;;;;;5072755;28;19975;-61
2023/05/13 11:10:42;;;;;;;;;;;;;;;;;;5073591;28;19920;-61
2023/05/13 11:13:08;;;;;;;;;;;;;;;;;;5070821;28;19920;-60
2023/05/13 11:15:34;;;;;;;;;;;;;;;;;;5071841;28;19925;-60
2023/05/13 11:18:00;;;;;;;;;;;;;;;;;;5065687;28;19924;-60
2023/05/13 11:20:26;;;;;;;;;;;;;;;;;;5054191;28;20062;-61
2023/05/13 11:22:52;;;;;;;;;;;;;;;;;;5072785;28;20449;-61
2023/05/13 11:25:18;;;;;;;;;;;;;;;;;;5073210;28;19974;-61
2023/05/13 11:27:46;;;;;;;;;;;;;;;;;;5072545;28;19924;-61
2023/05/13 11:30:12;;;;;;;;;;;;;;;;;;5071510;28;20507;-61
2023/05/13 11:32:38;;;;;;;;;;;;;;;;;;5069890;28;19924;-61
2023/05/13 11:35:03;;;;;;;;;;;;;;;;;;5089607;28;19951;-61
2023/05/13 11:37:31;;;;;;;;;;;;;;;;;;5090774;28;19960;-61
2023/05/13 11:39:57;;;;;;;;;;;;;;;;;;5073035;28;19920;-61
2023/05/13 11:42:23;;;;;;;;;;;;;;;;;;5088755;28;20288;-61
2023/05/13 11:44:48;;;;;;;;;;;;;;;;;;5076836;28;19920;-61
2023/05/13 11:47:14;;;;;;;;;;;;;;;;;;5089748;28;19970;-62
2023/05/13 11:49:40;;;;;;;;;;;;;;;;;;5087784;28;19944;-62
2023/05/13 11:52:06;;;;;;;;;;;;;;;;;;5084205;28;20370;-61
2023/05/13 11:54:32;;;;;;;;;;;;;;;;;;5083001;28;19926;-61
2023/05/13 11:56:58;;;;;;;;;;;;;;;;;;5075814;28;19930;-61
2023/05/13 11:59:24;;;;;;;;;;;;;;;;;;5091140;28;19980;-61
2023/05/13 12:01:50;;;;;;;;;;;;;;;;;;5082239;28;19956;-62
2023/05/13 12:04:16;;;;;;;;;;;;;;;;;;5071812;28;20416;-61
2023/05/13 12:06:43;;;;;;;;;;;;;;;;;;5072260;28;19959;-60
2023/05/13 12:09:09;;;;;;;;;;;;;;;;;;5072183;28;19960;-60
2023/05/13 12:11:36;;;;;;;;;;;;;;;;;;5070420;28;19931;-61
2023/05/13 12:14:02;;;;;;;;;;;;;;;;;;5072158;28;19975;-61
2023/05/13 12:16:28;;;;;;;;;;;;;;;;;;5081322;28;19951;-62
2023/05/13 12:18:55;;;;;;;;;;;;;;;;;;5075436;28;19920;-61
2023/05/13 12:21:21;;;;;;;;;;;;;;;;;;5070512;28;19943;-61
2023/05/13 12:23:47;;;;;;;;;;;;;;;;;;5083213;28;19920;-61
2023/05/13 12:26:13;;;;;;;;;;;;;;;;;;5089796;28;19943;-61
2023/05/13 12:28:39;;;;;;;;;;;;;;;;;;5086723;28;20389;-61
2023/05/13 12:31:05;;;;;;;;;;;;;;;;;;5077093;28;19924;-61
2023/05/13 12:33:30;;;;;;;;;;;;;;;;;;5051327;28;20050;-61
2023/05/13 12:35:56;;;;;;;;;;;;;;;;;;5064319;28;19931;-61
2023/05/13 12:38:23;;;;;;;;;;;;;;;;;;5071459;28;19924;-61
2023/05/13 12:40:49;;;;;;;;;;;;;;;;;;5071225;28;19926;-61
2023/05/13 12:43:15;;;;;;;;;;;;;;;;;;5070019;28;20346;-61
2023/05/13 12:45:41;;;;;;;;;;;;;;;;;;5065757;28;19931;-61
2023/05/13 12:48:07;;;;;;;;;;;;;;;;;;5072285;28;20014;-61
2023/05/13 12:50:33;;;;;;;;;;;;;;;;;;5080375;28;20007;-61
2023/05/13 12:52:59;;;;;;;;;;;;;;;;;;5079692;28;19924;-61
2023/05/13 12:55:28;;;;;;;;;;;;;;;;;;5088005;28;20506;-62
2023/05/13 12:57:55;;;;;;;;;;;;;;;;;;5080635;28;19927;-62
2023/05/13 13:00:21;;;;;;;;;;;;;;;;;;5084162;28;19924;-61
2023/05/13 13:02:46;;;;;;;;;;;;;;;;;;5071097;28;19935;-61
2023/05/13 13:05:12;;;;;;;;;;;;;;;;;;5063680;28;19920;-61
2023/05/13 13:07:40;;;;;;;;;;;;;;;;;;5069976;28;19954;-60
2023/05/13 13:10:06;;;;;;;;;;;;;;;;;;5063846;28;21506;-61
2023/05/13 13:12:32;;;;;;;;;;;;;;;;;;5068722;28;19928;-61
2023/05/13 13:14:58;;;;;;;;;;;;;;;;;;5067665;28;20243;-60
2023/05/13 13:17:24;;;;;;;;;;;;;;;;;;5069606;28;19920;-60
2023/05/13 13:19:50;;;;;;;;;;;;;;;;;;5067035;28;19921;-61
2023/05/13 13:22:16;;;;;;;;;;;;;;;;;;5071613;28;20382;-61
2023/05/13 13:24:42;;;;;;;;;;;;;;;;;;5069043;28;19920;-60
2023/05/13 13:27:08;;;;;;;;;;;;;;;;;;5071350;28;19924;-60
2023/05/13 13:29:34;;;;;;;;;;;;;;;;;;5070147;28;19967;-60
2023/05/13 13:32:00;;;;;;;;;;;;;;;;;;5071140;28;19931;-60
2023/05/13 13:34:25;;;;;;;;;;;;;;;;;;5069686;28;19924;-60
2023/05/13 13:36:51;;;;;;;;;;;;;;;;;;5055094;28;19925;-60
2023/05/13 13:39:17;;;;;;;;;;;;;;;;;;5071645;28;19974;-60
2023/05/13 13:41:43;;;;;;;;;;;;;;;;;;5070416;28;19964;-60
2023/05/13 13:44:10;;;;;;;;;;;;;;;;;;5071138;28;20019;-60
2023/05/13 13:46:36;;;;;;;;;;;;;;;;;;5071760;28;19960;-60
2023/05/13 13:49:01;;;;;;;;;;;;;;;;;;5069771;28;19967;-60
2023/05/13 13:51:27;;;;;;;;;;;;;;;;;;5070899;28;19928;-60
2023/05/13 13:53:53;;;;;;;;;;;;;;;;;;5089874;28;19921;-60
2023/05/13 13:56:19;;;;;;;;;;;;;;;;;;5083947;28;20023;-61
2023/05/13 13:58:45;;;;;;;;;;;;;;;;;;5077282;28;19924;-62
2023/05/13 14:01:11;;;;;;;;;;;;;;;;;;5072203;28;19925;-62
2023/05/13 14:03:37;;;;;;;;;;;;;;;;;;5054665;28;19928;-62
2023/05/13 14:06:03;;;;;;;;;;;;;;;;;;5052177;28;19927;-66
2023/05/13 14:08:29;;;;;;;;;;;;;;;;;;5072469;28;19936;-67
2023/05/13 14:10:56;;;;;;;;;;;;;;;;;;5080467;28;20251;-66
2023/05/13 14:13:22;;;;;;;;;;;;;;;;;;5071791;28;20413;-67
2023/05/13 14:15:48;;;;;;;;;;;;;;;;;;5074658;28;19950;-67
2023/05/13 14:18:14;;;;;;;;;;;;;;;;;;5070222;28;19968;-66
2023/05/13 14:20:40;;;;;;;;;;;;;;;;;;5071203;28;20048;-62
2023/05/13 14:23:06;;;;;;;;;;;;;;;;;;5070973;28;19929;-61
2023/05/13 14:25:32;;;;;;;;;;;;;;;;;;5085850;28;19931;-62
2023/05/13 14:27:57;;;;;;;;;;;;;;;;;;5072572;28;19967;-62
2023/05/13 14:30:26;;;;;;;;;;;;;;;;;;5072373;28;22058;-62
2023/05/13 14:32:52;;;;;;;;;;;;;;;;;;5069419;28;20017;-62
2023/05/13 14:35:18;;;;;;;;;;;;;;;;;;5071145;28;19998;-61
2023/05/13 14:37:44;;;;;;;;;;;;;;;;;;5073774;28;19925;-62
2023/05/13 14:40:10;;;;;;;;;;;;;;;;;;5068602;28;19921;-62
2023/05/13 14:42:36;;;;;;;;;;;;;;;;;;5072787;28;19924;-62
2023/05/13 14:45:01;;;;;;;;;;;;;;;;;;5071688;28;19931;-61
2023/05/13 14:47:27;;;;;;;;;;;;;;;;;;5068926;28;20373;-62
2023/05/13 14:49:53;;;;;;;;;;;;;;;;;;5069185;28;19924;-62
2023/05/13 14:52:19;;;;;;;;;;;;;;;;;;5073518;28;19978;-62
2023/05/13 14:54:45;;;;;;;;;;;;;;;;;;5061830;28;20428;-62
2023/05/13 14:57:11;;;;;;;;;;;;;;;;;;5082002;28;19942;-66
2023/05/13 14:59:37;;;;;;;;;;;;;;;;;;5069775;28;19924;-67
2023/05/13 15:02:03;;;;;;;;;;;;;;;;;;5069017;28;19928;-67
2023/05/13 15:04:29;;;;;;;;;;;;;;;;;;5076373;28;19924;-66
2023/05/13 15:06:55;;;;;;;;;;;;;;;;;;5070775;28;20007;-67
2023/05/13 15:09:21;;;;;;;;;;;;;;;;;;5084568;28;19931;-67
2023/05/13 15:11:46;;;;;;;;;;;;;;;;;;5067400;28;19920;-65
2023/05/13 15:14:16;;;;;;;;;;;;;;;;;;5071805;28;19928;-66
2023/05/13 15:16:42;;;;;;;;;;;;;;;;;;5067261;28;20366;-68
2023/05/13 15:19:08;;;;;;;;;;;;;;;;;;5070299;28;19974;-67
2023/05/13 15:21:34;;;;;;;;;;;;;;;;;;5069036;28;20381;-68
2023/05/13 15:24:00;;;;;;;;;;;;;;;;;;5065975;28;20368;-68
2023/05/13 15:26:26;;;;;;;;;;;;;;;;;;5068745;28;19924;-67
2023/05/13 15:28:52;;;;;;;;;;;;;;;;;;5070193;28;19975;-68
2023/05/13 15:31:17;;;;;;;;;;;;;;;;;;5071753;28;19927;-67
2023/05/13 15:33:43;;;;;;;;;;;;;;;;;;5080312;28;20579;-67
2023/05/13 15:36:09;;;;;;;;;;;;;;;;;;5067028;28;19921;-67
2023/05/13 15:38:36;;;;;;;;;;;;;;;;;;5068606;28;19921;-67
2023/05/13 15:41:02;;;;;;;;;;;;;;;;;;5071637;28;19928;-67
2023/05/13 15:43:29;;;;;;;;;;;;;;;;;;5070959;28;19921;-67
2023/05/13 15:45:55;;;;;;;;;;;;;;;;;;5070880;28;20425;-67
2023/05/13 15:48:21;;;;;;;;;;;;;;;;;;5072019;28;20071;-67
2023/05/13 15:50:47;;;;;;;;;;;;;;;;;;5071502;28;20003;-67
2023/05/13 15:53:13;;;;;;;;;;;;;;;;;;5070387;28;19924;-67
2023/05/13 15:55:39;;;;;;;;;;;;;;;;;;5070965;28;19920;-67
2023/05/13 15:58:05;;;;;;;;;;;;;;;;;;5071656;28;19920;-67
2023/05/13 16:00:31;;;;;;;;;;;;;;;;;;5068357;28;20021;-66
2023/05/13 16:02:57;;;;;;;;;;;;;;;;;;5071202;28;19970;-67
2023/05/13 16:05:23;;;;;;;;;;;;;;;;;;5072453;28;20394;-67
2023/05/13 16:07:49;;;;;;;;;;;;;;;;;;5071637;28;19924;-67
2023/05/13 16:10:15;;;;;;;;;;;;;;;;;;5070184;28;19935;-66
2023/05/13 16:12:41;;;;;;;;;;;;;;;;;;5076238;28;19968;-67
2023/05/13 16:15:07;;;;;;;;;;;;;;;;;;5069628;28;19921;-66
2023/05/13 16:17:34;;;;;;;;;;;;;;;;;;5064955;28;19924;-66
2023/05/13 16:20:00;;;;;;;;;;;;;;;;;;5068596;28;19959;-67
2023/05/13 16:22:26;;;;;;;;;;;;;;;;;;5069357;28;20029;-67
2023/05/13 16:24:52;;;;;;;;;;;;;;;;;;5075826;28;19940;-67
2023/05/13 16:27:19;;;;;;;;;;;;;;;;;;5073999;28;20351;-67
2023/05/13 16:29:45;;;;;;;;;;;;;;;;;;5068592;28;19924;-68
2023/05/13 16:32:11;;;;;;;;;;;;;;;;;;5068364;28;19973;-66
2023/05/13 16:34:37;;;;;;;;;;;;;;;;;;5077612;28;19920;-67
2023/05/13 16:37:03;;;;;;;;;;;;;;;;;;5073553;28;19924;-67